Matney, North Carolina
Current Conditions -  °F | °C
As of 9:15 AM on Thursday 30 Oct 2014 (Local Time) from KTNB Reporting Station
Clear Clear  
Wind Chill: 39°   Ceiling: Unl
Heat Index: 43°   Visibility: 10mi
Dew Point: 35°   Wind: 7mph
Humidity: 73%   Direction: 280°W
Pressure: 30.08"   Gusts: NA
Location:  36.1797°N, 81.8424°W
Report Text: KTNB 301315Z AUTO 28006KT 10SM CLR 06/02 A3008 RMK AO2 T00600015
Loading
Personal Weather Stations






























Interactive Weather Map
Tropical Storm Tracking
New forecast layout! Learn more

10-Day Weather Forecast

Advertisements
Track Severe Weather on mobile